Time;durP1;ratioP1;P1;durP2;ratioP2;P2;SDS_P1;SDS_P2;PMS_P1;PMS_P2;Temp;Humidity;BMP_temperature;BMP_pressure;BME280_temperature;BME280_humidity;BME280_pressure;Samples;Min_cycle;Max_cycle;Signal;HPM_P1;HPM_P2
2022/07/07 00:00:23;;;;;;;21.02;4.80;;;16.80;99.90;;;;;;5093251;28;20505;-79
2022/07/07 00:02:49;;;;;;;12.93;4.43;;;16.70;99.90;;;;;;5093142;28;20051;-79
2022/07/07 00:05:15;;;;;;;13.98;3.97;;;16.60;99.90;;;;;;5093221;28;20075;-79
2022/07/07 00:07:40;;;;;;;17.20;4.05;;;16.50;99.90;;;;;;5093080;28;20047;-79
2022/07/07 00:10:06;;;;;;;12.45;4.57;;;16.50;99.90;;;;;;5095824;28;20059;-80
2022/07/07 00:12:32;;;;;;;13.05;3.83;;;16.40;99.90;;;;;;5095789;28;20098;-79
2022/07/07 00:14:58;;;;;;;8.70;3.85;;;16.40;99.90;;;;;;5096628;28;20468;-79
2022/07/07 00:17:23;;;;;;;11.52;4.47;;;16.30;99.90;;;;;;5096676;28;20036;-80
2022/07/07 00:19:49;;;;;;;12.38;4.60;;;16.20;99.90;;;;;;5096186;28;20456;-79
2022/07/07 00:22:15;;;;;;;9.70;4.18;;;16.20;99.90;;;;;;5096501;28;20044;-79
2022/07/07 00:24:40;;;;;;;9.40;3.97;;;16.20;99.90;;;;;;5096578;28;20083;-79
2022/07/07 00:27:06;;;;;;;14.93;4.93;;;16.30;99.90;;;;;;5096521;28;20104;-79
2022/07/07 00:29:32;;;;;;;9.90;4.57;;;16.20;99.90;;;;;;5096514;28;20075;-79
2022/07/07 00:31:57;;;;;;;15.85;5.00;;;16.20;99.90;;;;;;5096435;28;20037;-79
2022/07/07 00:34:23;;;;;;;17.55;6.30;;;16.20;99.90;;;;;;5096126;28;20044;-79
2022/07/07 00:36:48;;;;;;;19.05;5.93;;;16.20;99.90;;;;;;5096395;28;20056;-78
2022/07/07 00:39:14;;;;;;;19.73;6.28;;;16.20;99.90;;;;;;5094925;28;20040;-79
2022/07/07 00:41:40;;;;;;;18.42;5.63;;;16.20;99.90;;;;;;5096268;28;20036;-78
2022/07/07 00:44:11;;;;;;;17.08;6.38;;;16.30;99.90;;;;;;5094896;28;20052;-79
2022/07/07 00:46:43;;;;;;;15.43;6.03;;;16.20;99.90;;;;;;5096092;28;20364;-79
2022/07/07 00:49:10;;;;;;;15.73;6.23;;;16.20;99.90;;;;;;5096011;28;20403;-78
2022/07/07 00:51:36;;;;;;;14.57;6.05;;;16.20;99.90;;;;;;5096054;28;20291;-79
2022/07/07 00:54:02;;;;;;;19.70;6.38;;;16.20;99.90;;;;;;5096437;28;20036;-79
2022/07/07 00:56:27;;;;;;;15.45;5.63;;;16.20;99.90;;;;;;5095866;28;20082;-79
2022/07/07 00:58:53;;;;;;;14.75;5.70;;;16.20;99.90;;;;;;5095908;28;20040;-79
2022/07/07 01:01:19;;;;;;;17.95;5.47;;;16.20;99.90;;;;;;5095766;28;20044;-79
2022/07/07 01:03:44;;;;;;;23.92;6.88;;;16.30;99.90;;;;;;5095513;28;20043;-79
2022/07/07 01:06:10;;;;;;;23.17;6.10;;;16.30;99.90;;;;;;5095828;28;20093;-79
2022/07/07 01:08:36;;;;;;;17.92;6.38;;;16.40;99.90;;;;;;5095743;28;20111;-79
2022/07/07 01:11:02;;;;;;;18.77;6.20;;;16.40;99.90;;;;;;5095716;28;20091;-79
2022/07/07 01:13:27;;;;;;;20.35;5.57;;;16.30;99.90;;;;;;5095665;28;20468;-79
2022/07/07 01:15:53;;;;;;;24.50;6.10;;;16.40;99.90;;;;;;5095499;28;20431;-78
2022/07/07 01:18:19;;;;;;;30.38;6.75;;;16.40;99.90;;;;;;5095557;28;20127;-79
2022/07/07 01:20:47;;;;;;;21.38;4.18;;;16.40;99.90;;;;;;5094420;28;20505;-79
2022/07/07 01:23:14;;;;;;;21.75;3.67;;;16.40;99.90;;;;;;5095396;28;20110;-79
2022/07/07 01:25:39;;;;;;;24.40;4.15;;;16.40;99.90;;;;;;5095419;28;20036;-80
2022/07/07 01:28:05;;;;;;;22.42;4.35;;;16.40;99.90;;;;;;5095404;28;20168;-79
2022/07/07 01:30:31;;;;;;;14.57;3.03;;;16.40;99.90;;;;;;5094019;28;20071;-80
2022/07/07 01:32:57;;;;;;;11.15;2.50;;;16.40;99.90;;;;;;5093794;28;20047;-80
2022/07/07 01:35:22;;;;;;;15.90;3.67;;;16.30;99.90;;;;;;5095178;28;20100;-79
2022/07/07 01:37:48;;;;;;;11.80;3.17;;;16.30;99.90;;;;;;5095165;28;20085;-79
2022/07/07 01:40:13;;;;;;;11.80;2.72;;;16.30;99.90;;;;;;5095164;28;20034;-80
2022/07/07 01:42:39;;;;;;;10.20;2.60;;;16.30;99.90;;;;;;5094966;28;20391;-80
2022/07/07 01:45:05;;;;;;;12.45;2.47;;;16.30;99.90;;;;;;5094948;28;20498;-79
2022/07/07 01:47:31;;;;;;;8.27;2.30;;;16.40;99.90;;;;;;5094995;28;20028;-79
2022/07/07 01:49:57;;;;;;;11.07;2.30;;;16.40;99.90;;;;;;5094978;28;20043;-79
2022/07/07 01:52:23;;;;;;;14.02;3.00;;;16.40;99.90;;;;;;5094898;28;20098;-79
2022/07/07 01:54:48;;;;;;;7.68;1.98;;;16.40;99.90;;;;;;5094879;28;20032;-79
2022/07/07 01:57:15;;;;;;;9.88;2.08;;;16.40;99.90;;;;;;5094775;28;20368;-80
2022/07/07 01:59:40;;;;;;;11.27;2.40;;;16.40;99.90;;;;;;5094504;28;20044;-79
2022/07/07 02:02:06;;;;;;;15.77;3.10;;;16.40;99.90;;;;;;5094744;28;20085;-79
2022/07/07 02:04:32;;;;;;;11.27;3.50;;;16.40;99.90;;;;;;5094574;28;20127;-79
2022/07/07 02:06:58;;;;;;;15.30;3.20;;;16.40;99.90;;;;;;5094605;28;20044;-79
2022/07/07 02:09:24;;;;;;;21.40;4.10;;;16.40;99.90;;;;;;5094577;28;20044;-80
2022/07/07 02:11:50;;;;;;;12.70;4.78;;;16.40;99.90;;;;;;5094576;28;20100;-79
2022/07/07 02:14:16;;;;;;;13.60;4.00;;;16.40;99.90;;;;;;5094449;28;20047;-79
2022/07/07 02:16:41;;;;;;;13.05;3.78;;;16.40;99.90;;;;;;5094499;28;20047;-79
2022/07/07 02:19:08;;;;;;;20.48;4.45;;;16.40;99.90;;;;;;5094252;28;20047;-79
2022/07/07 02:21:34;;;;;;;14.15;4.10;;;16.40;99.90;;;;;;5094437;28;20048;-79
2022/07/07 02:24:00;;;;;;;22.70;4.28;;;16.40;99.90;;;;;;5093178;28;20052;-79
2022/07/07 02:26:26;;;;;;;17.75;4.35;;;16.40;99.90;;;;;;5093987;28;20418;-79
2022/07/07 02:28:53;;;;;;;14.70;4.07;;;16.40;99.90;;;;;;5094077;28;20044;-79
2022/07/07 02:31:19;;;;;;;15.70;4.43;;;16.40;99.90;;;;;;5094013;28;20433;-79
2022/07/07 02:33:45;;;;;;;17.45;4.15;;;16.50;99.90;;;;;;5094240;28;20044;-79
2022/07/07 02:36:11;;;;;;;21.42;4.30;;;16.50;99.90;;;;;;5094120;28;20119;-80
2022/07/07 02:38:38;;;;;;;25.15;4.60;;;16.50;99.90;;;;;;5094060;28;20479;-80
2022/07/07 02:41:05;;;;;;;19.52;4.30;;;16.50;99.90;;;;;;5094112;28;20048;-79
2022/07/07 02:43:31;;;;;;;16.85;3.17;;;16.50;99.90;;;;;;5094072;28;20109;-80
2022/07/07 02:45:57;;;;;;;12.88;2.60;;;16.50;99.90;;;;;;5094012;28;20097;-80
2022/07/07 02:48:24;;;;;;;30.73;3.42;;;16.50;99.90;;;;;;5093847;28;20052;-79
2022/07/07 02:50:51;;;;;;;20.50;2.35;;;16.40;99.90;;;;;;5093973;28;20058;-79
2022/07/07 02:53:17;;;;;;;23.48;2.42;;;16.30;99.90;;;;;;5093993;28;20036;-79
2022/07/07 02:55:44;;;;;;;12.52;2.03;;;16.20;99.90;;;;;;5093845;28;20059;-80
2022/07/07 02:58:11;;;;;;;12.25;1.60;;;16.20;99.90;;;;;;5092395;28;20376;-80
2022/07/07 03:00:39;;;;;;;5.72;1.10;;;16.20;99.90;;;;;;5093905;28;20044;-80
2022/07/07 03:03:06;;;;;;;10.30;1.85;;;16.20;99.90;;;;;;5093656;28;20036;-79
2022/07/07 03:05:32;;;;;;;10.07;1.52;;;16.20;99.90;;;;;;5093671;28;20040;-79
2022/07/07 03:07:59;;;;;;;6.07;0.77;;;16.20;99.90;;;;;;5093969;28;20047;-80
2022/07/07 03:10:25;;;;;;;12.35;1.50;;;16.20;99.90;;;;;;5092764;28;20048;-80
2022/07/07 03:12:52;;;;;;;7.75;1.00;;;16.20;99.90;;;;;;5093818;28;20047;-80
2022/07/07 03:15:18;;;;;;;11.98;1.35;;;16.30;99.90;;;;;;5093727;28;20039;-80
2022/07/07 03:17:45;;;;;;;6.78;0.88;;;16.20;99.90;;;;;;5093264;28;20043;-80
2022/07/07 03:20:12;;;;;;;5.85;1.33;;;16.10;99.90;;;;;;5092601;28;20059;-80
2022/07/07 03:22:38;;;;;;;14.27;1.52;;;16.10;99.90;;;;;;5092451;28;20115;-80
2022/07/07 03:25:05;;;;;;;18.55;1.77;;;16.10;99.90;;;;;;5091690;28;20103;-80
2022/07/07 03:27:31;;;;;;;17.58;2.10;;;16.00;99.90;;;;;;5092414;28;20075;-80
2022/07/07 03:29:56;;;;;;;19.10;2.20;;;16.00;99.90;;;;;;5093508;28;20079;-80
2022/07/07 03:32:22;;;;;;;14.00;2.15;;;16.00;99.90;;;;;;5093501;28;20040;-80
2022/07/07 03:34:48;;;;;;;15.07;2.30;;;16.10;99.90;;;;;;5093243;28;20124;-80
2022/07/07 03:37:14;;;;;;;17.45;4.05;;;16.00;99.90;;;;;;5093180;28;20468;-81
2022/07/07 03:39:40;;;;;;;8.55;1.67;;;16.00;99.90;;;;;;5093181;28;20040;-81
2022/07/07 03:42:06;;;;;;;13.30;2.13;;;16.00;99.90;;;;;;5093399;28;20050;-81
2022/07/07 03:44:31;;;;;;;11.32;2.10;;;16.00;99.90;;;;;;5094416;28;20158;-80
2022/07/07 03:46:57;;;;;;;12.95;1.75;;;16.00;99.90;;;;;;5095599;28;20048;-80
2022/07/07 03:49:23;;;;;;;13.75;2.15;;;16.00;99.90;;;;;;5095965;28;20548;-80
2022/07/07 03:51:48;;;;;;;20.75;3.10;;;16.00;99.90;;;;;;5097018;28;20433;-80
2022/07/07 03:54:14;;;;;;;14.30;2.97;;;16.00;99.90;;;;;;5096734;28;20123;-80
2022/07/07 03:56:40;;;;;;;14.32;2.15;;;15.90;99.90;;;;;;5097124;28;20551;-80
2022/07/07 03:59:06;;;;;;;16.63;2.22;;;16.00;99.90;;;;;;5096924;28;20101;-80
2022/07/07 04:01:32;;;;;;;11.77;1.80;;;16.00;99.90;;;;;;5096990;28;20040;-80
2022/07/07 04:03:57;;;;;;;11.30;1.63;;;16.00;99.90;;;;;;5096496;28;20048;-81
2022/07/07 04:06:23;;;;;;;9.55;1.63;;;15.90;99.90;;;;;;5096783;28;20486;-81
2022/07/07 04:08:49;;;;;;;8.15;1.55;;;15.90;99.90;;;;;;5096792;28;20120;-80
2022/07/07 04:11:16;;;;;;;9.90;1.65;;;15.90;99.90;;;;;;5096785;28;20047;-80
2022/07/07 04:13:41;;;;;;;11.07;1.67;;;15.90;99.90;;;;;;5096755;28;20073;-80
2022/07/07 04:16:07;;;;;;;15.85;1.85;;;15.90;99.90;;;;;;5096651;28;20036;-81
2022/07/07 04:18:33;;;;;;;15.93;2.22;;;15.90;99.90;;;;;;5096709;28;20487;-80
2022/07/07 04:20:59;;;;;;;14.38;2.75;;;15.90;99.90;;;;;;5096378;28;20044;-80
2022/07/07 04:23:25;;;;;;;11.30;2.08;;;15.90;99.90;;;;;;5096505;28;20054;-80
2022/07/07 04:25:50;;;;;;;13.43;2.70;;;15.90;99.90;;;;;;5096491;28;20036;-80
2022/07/07 04:28:16;;;;;;;19.15;2.08;;;15.90;99.90;;;;;;5096218;28;20040;-81
2022/07/07 04:30:42;;;;;;;11.07;2.55;;;15.90;99.90;;;;;;5096264;28;20071;-80
2022/07/07 04:33:07;;;;;;;19.58;2.97;;;15.90;99.90;;;;;;5096316;28;20054;-80
2022/07/07 04:35:33;;;;;;;12.73;2.58;;;15.90;99.90;;;;;;5096236;28;20048;-80
2022/07/07 04:37:58;;;;;;;15.48;2.55;;;15.90;99.90;;;;;;5096016;28;20051;-81
2022/07/07 04:40:24;;;;;;;20.88;3.15;;;15.90;99.90;;;;;;5094774;28;20146;-81
2022/07/07 04:42:50;;;;;;;13.98;2.70;;;15.80;99.90;;;;;;5096154;28;20040;-81
2022/07/07 04:45:15;;;;;;;16.08;2.63;;;15.80;99.90;;;;;;5096168;28;20052;-81
2022/07/07 04:47:42;;;;;;;15.52;4.40;;;15.80;99.90;;;;;;5096260;28;20056;-81
2022/07/07 04:50:09;;;;;;;8.27;2.38;;;15.80;99.90;;;;;;5095856;28;20491;-81
2022/07/07 04:52:38;;;;;;;16.80;2.38;;;15.80;99.90;;;;;;5096004;28;20074;-80
2022/07/07 04:55:04;;;;;;;13.90;2.97;;;15.90;99.90;;;;;;5095113;28;20044;-80
2022/07/07 04:57:30;;;;;;;18.27;2.90;;;15.90;99.90;;;;;;5095389;28;20044;-80
2022/07/07 04:59:56;;;;;;;18.88;3.45;;;16.00;99.90;;;;;;5095975;28;20036;-80
2022/07/07 05:02:23;;;;;;;15.23;4.63;;;15.90;99.90;;;;;;5094267;28;20137;-80
2022/07/07 05:04:49;;;;;;;16.45;3.35;;;16.00;99.90;;;;;;5095707;28;20047;-80
2022/07/07 05:07:15;;;;;;;10.77;2.10;;;16.00;99.90;;;;;;5095588;28;20055;-80
2022/07/07 05:09:41;;;;;;;11.40;2.38;;;16.00;99.90;;;;;;5095695;28;20032;-79
2022/07/07 05:12:07;;;;;;;18.00;2.38;;;16.00;99.90;;;;;;5095626;28;20483;-81
2022/07/07 05:14:33;;;;;;;13.98;2.42;;;16.00;99.90;;;;;;5095556;28;20039;-80
2022/07/07 05:16:59;;;;;;;16.33;1.77;;;16.00;99.90;;;;;;5095551;28;20082;-83
2022/07/07 05:19:26;;;;;;;12.38;2.03;;;16.10;99.90;;;;;;5095266;28;20063;-80
2022/07/07 05:21:52;;;;;;;20.23;2.45;;;16.20;99.90;;;;;;5095480;28;20059;-82
2022/07/07 05:24:17;;;;;;;13.25;2.13;;;16.20;99.90;;;;;;5093828;28;20052;-79
2022/07/07 05:26:44;;;;;;;9.80;1.40;;;16.20;99.90;;;;;;5095274;28;20055;-80
2022/07/07 05:29:09;;;;;;;16.98;2.53;;;16.30;99.90;;;;;;5094964;28;20472;-80
2022/07/07 05:31:35;;;;;;;10.25;1.60;;;16.40;99.90;;;;;;5094961;28;20483;-82
2022/07/07 05:34:01;;;;;;;12.25;2.03;;;16.50;99.90;;;;;;5094956;28;20119;-82
2022/07/07 05:36:26;;;;;;;12.15;2.20;;;16.50;99.90;;;;;;5093586;28;20044;-80
2022/07/07 05:38:52;;;;;;;12.73;1.80;;;16.50;99.90;;;;;;5095133;28;20040;-80
2022/07/07 05:41:18;;;;;;;17.15;3.53;;;16.60;99.90;;;;;;5094845;28;20036;-82
2022/07/07 05:43:44;;;;;;;15.50;1.90;;;16.50;99.90;;;;;;5094839;28;20055;-80
2022/07/07 05:46:11;;;;;;;12.68;2.80;;;16.60;99.90;;;;;;5094863;28;20467;-80
2022/07/07 05:48:37;;;;;;;8.15;1.67;;;16.60;99.90;;;;;;5094888;28;20127;-80
2022/07/07 05:51:04;;;;;;;13.27;1.88;;;16.60;99.90;;;;;;5094684;28;20078;-79
2022/07/07 05:53:29;;;;;;;9.57;1.17;;;16.60;99.90;;;;;;5094916;28;20040;-79
2022/07/07 05:55:56;;;;;;;8.95;1.67;;;16.70;99.90;;;;;;5094871;28;20032;-79
2022/07/07 05:58:22;;;;;;;11.63;1.50;;;16.80;99.90;;;;;;5094628;28;20044;-79
2022/07/07 06:00:48;;;;;;;6.47;1.00;;;16.80;99.90;;;;;;5094533;28;20132;-80
2022/07/07 06:03:13;;;;;;;9.82;1.90;;;16.90;99.90;;;;;;5094366;28;20044;-79
2022/07/07 06:05:40;;;;;;;10.75;1.30;;;17.00;99.90;;;;;;5094371;28;20048;-79
2022/07/07 06:08:05;;;;;;;8.05;0.93;;;17.10;99.90;;;;;;5094372;28;20043;-79
2022/07/07 06:10:32;;;;;;;9.82;1.23;;;17.10;99.90;;;;;;5094575;28;20437;-80
2022/07/07 06:12:58;;;;;;;8.73;1.55;;;17.10;99.90;;;;;;5094550;28;20050;-79
2022/07/07 06:15:24;;;;;;;7.90;1.15;;;17.10;99.90;;;;;;5094515;28;20105;-80
2022/07/07 06:17:49;;;;;;;5.95;1.02;;;17.00;99.90;;;;;;5094176;28;20043;-80
2022/07/07 06:20:15;;;;;;;9.40;0.70;;;16.90;99.90;;;;;;5094103;28;20052;-79
2022/07/07 06:22:41;;;;;;;6.22;0.82;;;16.80;99.90;;;;;;5093043;28;20043;-80
2022/07/07 06:25:08;;;;;;;12.63;0.95;;;16.80;99.90;;;;;;5094274;28;20036;-80
2022/07/07 06:27:35;;;;;;;6.45;1.30;;;16.90;99.90;;;;;;5087442;28;20064;-81
2022/07/07 06:30:02;;;;;;;9.80;1.40;;;17.00;99.90;;;;;;5082577;28;20044;-80
2022/07/07 06:32:27;;;;;;;8.30;1.65;;;17.00;99.90;;;;;;5073756;28;20040;-79
2022/07/07 06:34:53;;;;;;;11.68;1.30;;;17.10;99.90;;;;;;5073766;28;20040;-80
2022/07/07 06:37:19;;;;;;;10.30;1.50;;;17.00;99.90;;;;;;5073732;28;20041;-79
2022/07/07 06:39:44;;;;;;;10.07;1.50;;;17.00;99.90;;;;;;5073346;28;20041;-79
2022/07/07 06:42:10;;;;;;;7.55;1.20;;;17.00;99.90;;;;;;5073740;28;20531;-79
2022/07/07 06:44:35;;;;;;;13.35;1.20;;;17.00;99.90;;;;;;5073376;28;20040;-78
2022/07/07 06:47:01;;;;;;;6.68;0.88;;;16.90;99.90;;;;;;5073597;28;20071;-79
2022/07/07 06:49:28;;;;;;;10.25;1.23;;;16.90;99.90;;;;;;5073538;28;20129;-79
2022/07/07 06:51:55;;;;;;;7.05;1.13;;;16.80;99.90;;;;;;5073281;28;20400;-78
2022/07/07 06:54:21;;;;;;;4.65;0.77;;;16.80;99.90;;;;;;5073254;28;20475;-78
2022/07/07 06:56:47;;;;;;;8.02;1.58;;;16.80;99.90;;;;;;5071882;28;20564;-79
2022/07/07 06:59:13;;;;;;;15.07;1.80;;;16.80;99.90;;;;;;5073477;28;20132;-80
2022/07/07 07:01:39;;;;;;;10.40;1.67;;;16.80;99.90;;;;;;5073200;28;20071;-78
2022/07/07 07:04:07;;;;;;;20.52;2.53;;;16.90;99.90;;;;;;5073437;28;20122;-79
2022/07/07 07:06:33;;;;;;;8.13;0.95;;;17.00;99.90;;;;;;5073303;28;20499;-80
2022/07/07 07:08:59;;;;;;;10.65;1.05;;;17.00;99.90;;;;;;5073181;28;20076;-80
2022/07/07 07:11:25;;;;;;;5.72;2.17;;;16.90;99.90;;;;;;5073178;28;20045;-80
2022/07/07 07:13:51;;;;;;;9.43;0.98;;;17.00;99.90;;;;;;5073384;28;20033;-79
2022/07/07 07:16:18;;;;;;;11.18;2.08;;;17.10;99.90;;;;;;5072941;28;20114;-79
2022/07/07 07:18:45;;;;;;;9.45;1.30;;;17.30;99.90;;;;;;5072655;28;20127;-78
2022/07/07 07:21:11;;;;;;;10.75;1.50;;;17.40;99.90;;;;;;5077040;28;20088;-79
2022/07/07 07:23:38;;;;;;;10.73;1.50;;;17.50;99.90;;;;;;5076985;28;20574;-81
2022/07/07 07:26:04;;;;;;;13.43;1.42;;;17.60;99.90;;;;;;5077378;28;20084;-79
2022/07/07 07:28:30;;;;;;;16.58;2.85;;;17.70;99.90;;;;;;5077108;28;20143;-79
2022/07/07 07:30:56;;;;;;;14.27;2.33;;;17.80;99.90;;;;;;5077168;28;20450;-79
2022/07/07 07:33:22;;;;;;;13.88;1.50;;;17.90;99.90;;;;;;5077138;28;20033;-79
2022/07/07 07:35:48;;;;;;;15.15;2.15;;;17.90;99.90;;;;;;5077081;28;20037;-79
2022/07/07 07:38:13;;;;;;;13.65;1.80;;;18.00;99.90;;;;;;5075518;28;20131;-79
2022/07/07 07:40:39;;;;;;;12.85;2.05;;;18.00;99.90;;;;;;5076827;28;20116;-79
2022/07/07 07:43:05;;;;;;;10.18;1.60;;;18.00;99.90;;;;;;5075452;28;20479;-79
2022/07/07 07:45:31;;;;;;;9.82;1.73;;;17.90;99.90;;;;;;5076559;28;20044;-79
2022/07/07 07:47:57;;;;;;;18.60;2.25;;;17.80;99.90;;;;;;5079125;28;20043;-79
2022/07/07 07:50:23;;;;;;;14.60;1.92;;;17.90;99.90;;;;;;5085665;28;20040;-79
2022/07/07 07:52:50;;;;;;;21.17;3.05;;;18.00;99.90;;;;;;5076663;28;20044;-79
2022/07/07 07:55:18;;;;;;;16.35;2.05;;;17.80;99.90;;;;;;5076510;28;20112;-79
2022/07/07 07:57:44;;;;;;;13.40;2.10;;;17.70;99.90;;;;;;5076387;28;20051;-79
2022/07/07 08:00:13;;;;;;;9.90;1.67;;;17.70;99.90;;;;;;5076478;28;20490;-80
2022/07/07 08:02:40;;;;;;;8.18;1.90;;;17.80;99.90;;;;;;5089107;28;20499;-79
2022/07/07 08:05:06;;;;;;;6.13;1.33;;;17.80;99.90;;;;;;5096580;28;20044;-80
2022/07/07 08:07:32;;;;;;;11.63;1.65;;;17.90;99.90;;;;;;5096517;28;20437;-79
2022/07/07 08:09:59;;;;;;;12.77;1.90;;;17.80;99.90;;;;;;5095301;28;20145;-79
2022/07/07 08:12:25;;;;;;;11.55;2.08;;;17.90;99.90;;;;;;5096584;28;20048;-80
2022/07/07 08:14:51;;;;;;;15.93;3.13;;;17.80;99.90;;;;;;5096491;28;20097;-80
2022/07/07 08:17:17;;;;;;;10.48;1.70;;;17.90;99.90;;;;;;5093893;28;20046;-80
2022/07/07 08:19:43;;;;;;;10.13;1.63;;;17.90;99.90;;;;;;5090480;28;20084;-80
2022/07/07 08:22:10;;;;;;;15.25;1.80;;;18.10;99.90;;;;;;5096211;28;20040;-79
2022/07/07 08:24:36;;;;;;;11.55;1.90;;;18.20;99.90;;;;;;5093101;28;20036;-79
2022/07/07 08:27:03;;;;;;;11.13;2.05;;;18.20;99.90;;;;;;5096081;28;20079;-79
2022/07/07 08:29:29;;;;;;;11.27;1.58;;;18.00;99.90;;;;;;5088130;28;20114;-79
2022/07/07 08:31:54;;;;;;;6.68;1.40;;;18.00;99.90;;;;;;5075931;28;20072;-79
2022/07/07 08:34:20;;;;;;;9.23;1.27;;;18.10;99.90;;;;;;5075753;28;20086;-80
2022/07/07 08:36:46;;;;;;;10.23;1.67;;;18.20;99.90;;;;;;5075405;28;20090;-79
2022/07/07 08:39:13;;;;;;;10.50;1.20;;;18.40;99.90;;;;;;5073935;28;20048;-80
2022/07/07 08:41:39;;;;;;;9.23;1.00;;;18.60;99.90;;;;;;5074930;28;20049;-79
2022/07/07 08:44:05;;;;;;;8.68;1.10;;;18.70;99.90;;;;;;5075333;28;20045;-79
2022/07/07 08:46:31;;;;;;;9.57;1.20;;;18.80;99.90;;;;;;5074756;28;20053;-79
2022/07/07 08:48:57;;;;;;;13.70;2.20;;;18.90;99.90;;;;;;5075771;28;20071;-79
2022/07/07 08:51:23;;;;;;;8.77;1.40;;;18.80;99.90;;;;;;5075768;28;20048;-79
2022/07/07 08:53:48;;;;;;;11.63;1.75;;;18.80;99.90;;;;;;5075453;28;20037;-79
2022/07/07 08:56:18;;;;;;;10.68;2.00;;;18.80;99.90;;;;;;5075402;28;20047;-79
2022/07/07 08:58:45;;;;;;;11.63;1.50;;;18.90;99.90;;;;;;5075554;28;20043;-80
2022/07/07 09:01:10;;;;;;;13.77;2.13;;;18.90;99.90;;;;;;5075495;28;20036;-78
2022/07/07 09:03:36;;;;;;;7.10;1.83;;;18.80;99.90;;;;;;5075279;28;20051;-82
2022/07/07 09:06:02;;;;;;;8.65;1.83;;;18.70;99.90;;;;;;5075553;28;20045;-89
2022/07/07 09:08:30;;;;;;;7.50;0.98;;;18.70;99.90;;;;;;5098188;28;20086;-79
2022/07/07 09:10:57;;;;;;;8.98;1.15;;;18.50;99.90;;;;;;5093753;28;20191;-85
2022/07/07 09:13:33;;;;;;;11.60;1.55;;;18.60;99.90;;;;;;5094927;28;20479;-84
2022/07/07 09:16:14;;;;;;;11.80;1.17;;;18.50;99.90;;;;;;5095177;28;20050;-86
2022/07/07 09:18:43;;;;;;;8.93;2.38;;;18.70;99.90;;;;;;5095312;28;20124;-79
2022/07/07 09:21:31;;;;;;;12.82;1.73;;;18.70;99.90;;;;;;5094869;28;20056;-76
2022/07/07 09:24:02;;;;;;;11.70;2.00;;;18.70;99.90;;;;;;5095236;28;20044;-89
2022/07/07 09:26:36;;;;;;;10.35;1.83;;;18.80;99.90;;;;;;5094780;28;20048;-93
2022/07/07 09:29:22;;;;;;;10.20;1.33;;;18.80;99.90;;;;;;5093583;28;20047;-91
2022/07/07 09:31:59;;;;;;;9.30;1.65;;;18.70;99.90;;;;;;5093817;28;20395;-89
2022/07/07 09:34:32;;;;;;;15.23;2.08;;;18.60;99.90;;;;;;5095190;28;20407;-95
2022/07/07 09:39:46;;;;;;;14.00;1.85;;;18.20;99.90;;;;;;5093735;28;19927;-91
2022/07/07 09:42:24;;;;;;;12.63;2.10;;;18.10;99.90;;;;;;5092510;28;20475;-86
2022/07/07 09:45:00;;;;;;;15.23;2.00;;;18.00;99.90;;;;;;5093064;28;20127;-88
2022/07/07 09:47:26;;;;;;;20.95;1.77;;;18.00;99.90;;;;;;5094948;28;20094;-78
2022/07/07 09:50:14;;;;;;;10.95;1.75;;;18.00;99.90;;;;;;5094787;28;20074;-87
2022/07/07 09:52:41;;;;;;;16.23;1.85;;;17.90;99.90;;;;;;5094290;28;20464;-86
2022/07/07 09:55:09;;;;;;;7.55;1.38;;;17.80;99.90;;;;;;5094675;28;20050;-86
2022/07/07 09:57:35;;;;;;;13.27;1.83;;;17.80;99.90;;;;;;5094547;28;20050;-87
2022/07/07 10:00:01;;;;;;;15.45;1.83;;;17.70;99.90;;;;;;5094447;28;20132;-79
2022/07/07 10:02:29;;;;;;;8.80;1.50;;;17.60;99.90;;;;;;5094227;28;20127;-83
2022/07/07 10:04:57;;;;;;;12.20;1.83;;;17.70;99.90;;;;;;5093869;28;20147;-86
2022/07/07 10:07:28;;;;;;;7.45;1.63;;;17.80;99.90;;;;;;5093145;28;20070;-88
2022/07/07 10:10:08;;;;;;;10.82;1.60;;;17.90;99.90;;;;;;5094532;28;20044;-89
2022/07/07 10:12:43;;;;;;;15.95;2.20;;;18.10;99.90;;;;;;5092905;28;20075;-83
2022/07/07 10:15:11;;;;;;;11.77;1.85;;;18.20;99.90;;;;;;5094271;28;20044;-79
2022/07/07 10:17:37;;;;;;;13.55;2.80;;;18.20;99.90;;;;;;5093928;28;20044;-79
2022/07/07 10:20:03;;;;;;;14.57;1.92;;;18.30;99.90;;;;;;5093671;28;20456;-79
2022/07/07 10:22:30;;;;;;;16.90;2.75;;;18.40;99.90;;;;;;5092462;28;20059;-80
2022/07/07 10:24:57;;;;;;;23.05;2.70;;;18.50;99.90;;;;;;5093764;28;20067;-80
2022/07/07 10:27:24;;;;;;;17.20;2.90;;;18.40;99.90;;;;;;5093959;28;20044;-79
2022/07/07 10:29:52;;;;;;;15.40;2.97;;;18.20;99.90;;;;;;5093765;28;20048;-79
2022/07/07 10:32:49;;;;;;;18.13;3.50;;;18.10;99.90;;;;;;5093535;28;20044;-80
2022/07/07 10:35:15;;;;;;;18.90;3.00;;;18.00;99.90;;;;;;5093849;28;20048;-79
2022/07/07 10:37:49;;;;;;;21.55;3.22;;;18.00;99.90;;;;;;5093921;28;20044;-79
2022/07/07 10:40:27;;;;;;;15.13;2.92;;;18.10;99.90;;;;;;5093750;28;20051;-79
2022/07/07 10:43:33;;;;;;;17.60;3.30;;;18.00;99.90;;;;;;5093185;28;20065;-79
2022/07/07 10:46:01;;;;;;;14.88;2.38;;;18.10;99.90;;;;;;5063823;28;20059;-79
2022/07/07 10:48:44;;;;;;;15.27;2.70;;;18.10;99.90;;;;;;5092510;28;20051;-79
2022/07/07 10:51:27;;;;;;;18.75;2.78;;;18.10;99.90;;;;;;5093605;28;20471;-79
2022/07/07 10:54:06;;;;;;;14.33;3.80;;;18.20;99.90;;;;;;5092536;28;20395;-79
2022/07/07 10:56:50;;;;;;;16.13;2.15;;;18.20;99.90;;;;;;5093681;28;20290;-79
2022/07/07 10:59:20;;;;;;;12.40;2.53;;;18.30;99.90;;;;;;5092110;28;20390;-80
2022/07/07 11:02:06;;;;;;;11.52;2.25;;;18.40;99.90;;;;;;5093547;28;20082;-79
2022/07/07 11:04:45;;;;;;;12.32;2.35;;;18.40;99.90;;;;;;5079002;28;20135;-79
2022/07/07 11:07:14;;;;;;;13.30;2.20;;;18.50;99.90;;;;;;5093526;28;20134;-78
2022/07/07 11:10:00;;;;;;;10.85;2.45;;;18.50;99.90;;;;;;5093160;28;20080;-79
2022/07/07 11:12:40;;;;;;;11.07;1.83;;;18.60;99.90;;;;;;5092273;28;20056;-79
2022/07/07 11:15:15;;;;;;;17.48;2.88;;;18.70;99.90;;;;;;5093542;28;20041;-79
2022/07/07 11:17:45;;;;;;;14.75;2.83;;;18.70;99.90;;;;;;5093127;28;20520;-79
2022/07/07 11:20:21;;;;;;;12.90;2.38;;;18.70;99.90;;;;;;5091821;28;20060;-78
2022/07/07 11:22:49;;;;;;;16.52;2.63;;;18.70;99.90;;;;;;5091902;28;20406;-79
2022/07/07 11:25:19;;;;;;;11.82;2.25;;;18.60;99.90;;;;;;5093508;28;20071;-79
2022/07/07 11:27:45;;;;;;;15.77;2.90;;;18.50;99.90;;;;;;5093398;28;20044;-80
2022/07/07 11:30:11;;;;;;;14.48;3.17;;;18.40;99.90;;;;;;5093486;28;20067;-79
2022/07/07 11:32:39;;;;;;;23.60;2.85;;;18.60;99.90;;;;;;5093314;28;20080;-80
2022/07/07 11:35:06;;;;;;;11.55;2.88;;;18.60;99.90;;;;;;5093339;28;20047;-80
2022/07/07 11:37:33;;;;;;;20.80;2.83;;;18.70;99.90;;;;;;5093081;28;20483;-80
2022/07/07 11:39:59;;;;;;;14.02;2.25;;;18.60;99.90;;;;;;5093396;28;20062;-79
2022/07/07 11:42:26;;;;;;;15.88;2.80;;;18.50;99.90;;;;;;5092039;28;20526;-80
2022/07/07 11:44:52;;;;;;;11.32;2.45;;;18.40;99.90;;;;;;5093142;28;20142;-79
2022/07/07 11:47:18;;;;;;;18.33;3.92;;;18.40;99.90;;;;;;5093040;28;20062;-79
2022/07/07 11:49:44;;;;;;;12.20;1.92;;;18.50;99.90;;;;;;5092982;28;20487;-80
2022/07/07 11:52:15;;;;;;;13.55;3.38;;;18.50;99.90;;;;;;5093285;28;20040;-79
2022/07/07 11:54:47;;;;;;;10.85;1.70;;;18.60;99.90;;;;;;5093013;28;20052;-79
2022/07/07 11:57:27;;;;;;;13.68;2.13;;;18.70;99.90;;;;;;5091638;28;20134;-79
2022/07/07 11:59:53;;;;;;;12.43;1.70;;;18.80;99.90;;;;;;5093086;28;20048;-78
2022/07/07 12:02:19;;;;;;;7.68;1.85;;;18.90;99.90;;;;;;5092809;28;20047;-79
2022/07/07 12:04:45;;;;;;;12.48;2.10;;;19.00;99.90;;;;;;5092175;28;20048;-79
2022/07/07 12:07:11;;;;;;;15.55;2.28;;;19.20;99.90;;;;;;5095637;28;20040;-79
2022/07/07 12:09:37;;;;;;;13.60;2.28;;;19.20;99.90;;;;;;5095483;28;20407;-79
2022/07/07 12:12:03;;;;;;;13.55;2.92;;;19.30;99.90;;;;;;5096342;28;20036;-79
2022/07/07 12:14:29;;;;;;;14.50;2.25;;;19.30;99.90;;;;;;5096341;28;20040;-80
2022/07/07 12:16:55;;;;;;;15.20;2.20;;;19.30;99.90;;;;;;5096696;28;20131;-80
2022/07/07 12:19:22;;;;;;;13.77;2.22;;;19.20;99.90;;;;;;5096283;28;20510;-79
2022/07/07 12:21:50;;;;;;;20.63;2.75;;;19.10;99.90;;;;;;5096238;28;20491;-79
2022/07/07 12:24:20;;;;;;;16.80;3.33;;;18.90;99.90;;;;;;5096438;28;20046;-80
2022/07/07 12:26:49;;;;;;;17.10;2.83;;;18.70;99.90;;;;;;5096474;28;20047;-80
2022/07/07 12:29:26;;;;;;;19.77;4.47;;;18.50;99.90;;;;;;5094943;28;20048;-86
2022/07/07 12:31:51;;;;;;;15.98;2.67;;;18.50;99.90;;;;;;5094218;28;20097;-83
2022/07/07 12:34:19;;;;;;;16.30;2.80;;;18.40;99.90;;;;;;5095707;28;20433;-82
2022/07/07 12:36:47;;;;;;;15.35;3.15;;;18.40;99.90;;;;;;5096069;28;20053;-83
2022/07/07 12:39:14;;;;;;;16.42;2.42;;;18.30;99.90;;;;;;5096133;28;20032;-83
2022/07/07 12:41:41;;;;;;;14.05;2.65;;;18.20;99.90;;;;;;5094479;28;20474;-82